Welcome to Northern Hawkes Bay. New Zealand.
PWS Header
      nz Flag



Hit Counter


W3C Valid W3C Valid logo


    Wairoa

Select any of the Stations below to visit their websites.










Historic Data from Weather Underground
Select the location of interest below. Wairoa is the default. Please have patience, this Data is slow to load in.
Northern Hawkes Bay Historical Data
Daily Summary for February 16, 2017 Units:  Metric    English   Both
« Previous Day
Next Day »
Daily Weekly Monthly Yearly Custom
  High: Low: Average:
Temperature: 19.0 °C 16.5 °C 17.4 °C
Dew Point: 17.6 °C 16.1 °C 16.6 °C
Humidity: 98% 84% 95%
Wind Speed: 12.2km/h 0.0km/h 2.5km/h
Wind Gust: 85.6km/h - -
Wind- - SE
Pressure: 1018.2 hPa 1015.5 hPa -
Precipitation: 20.6 mm    
Historical Graphs
 
 
Tabular Data for February 16, 2017
Time Temperature Dew Point Pressure Wind Wind Speed Wind Gust Humidity Rainfall Rate (Hourly) solar
00:11 19.0 °C 16.2 °C 1015.5 hPa East 6.1 km/h 9.7 km/h 84% 0.0 mm 0 W/m2
00:16 19.0 °C 16.2 °C 1015.5 hPa East 1.1 km/h 8.7 km/h 84% 0.0 mm 0 W/m2
00:21 19.0 °C 16.2 °C 1015.5 hPa East 5.0 km/h 8.7 km/h 84% 0.0 mm 0 W/m2
00:26 19.0 °C 16.2 °C 1015.5 hPa Calm   7.2 km/h 84% 0.0 mm 0 W/m2
00:31 19.0 °C 16.2 °C 1015.5 hPa Calm   7.2 km/h 84% 0.0 mm 0 W/m2
00:36 18.9 °C 16.3 °C 1015.5 hPa SE 1.1 km/h 3.5 km/h 85% 0.0 mm 0 W/m2
00:41 18.9 °C 16.3 °C 1015.8 hPa SE 1.1 km/h 3.5 km/h 85% 0.0 mm 0 W/m2
00:46 18.9 °C 16.3 °C 1015.5 hPa Calm   3.5 km/h 85% 0.0 mm 0 W/m2
00:51 18.9 °C 16.3 °C 1015.8 hPa East 1.1 km/h 5.0 km/h 85% 0.0 mm 0 W/m2
00:56 18.9 °C 16.3 °C 1015.8 hPa ENE 1.1 km/h 6.1 km/h 85% 0.0 mm 0 W/m2
01:01 18.8 °C 16.2 °C 1015.8 hPa Calm   6.1 km/h 85% 0.0 mm 0 W/m2
01:06 18.8 °C 16.4 °C 1015.8 hPa ESE 1.1 km/h 6.1 km/h 86% 0.0 mm 0 W/m2
01:11 18.6 °C 16.4 °C 1015.8 hPa SE 2.6 km/h 6.1 km/h 87% 0.0 mm 0 W/m2
01:16 18.3 °C 16.3 °C 1015.8 hPa SE 1.1 km/h 7.2 km/h 88% 0.3 mm 0 W/m2
01:21 18.0 °C 16.3 °C 1015.8 hPa SE 1.1 km/h 7.2 km/h 90% 0.3 mm 0 W/m2
01:26 17.7 °C 16.2 °C 1016.1 hPa ESE 2.6 km/h 6.1 km/h 91% 0.5 mm 0 W/m2
01:31 17.5 °C 16.2 °C 1016.1 hPa ESE 1.1 km/h 7.2 km/h 92% 1.0 mm 0 W/m2
01:36 17.3 °C 16.2 °C 1016.1 hPa SE 2.6 km/h 7.2 km/h 93% 1.3 mm 0 W/m2
01:41 17.2 °C 16.2 °C 1016.1 hPa SSE 1.1 km/h 7.2 km/h 94% 1.3 mm 0 W/m2
01:46 17.1 °C 16.3 °C 1015.8 hPa SSE 2.6 km/h 7.2 km/h 95% 1.3 mm 0 W/m2
01:51 17.1 °C 16.4 °C 1015.8 hPa Calm   6.1 km/h 96% 1.3 mm 0 W/m2
02:08 17.1 °C 16.6 °C 1015.8 hPa Calm   5.0 km/h 97% 1.3 mm 0 W/m2
02:13 17.1 °C 16.6 °C 1015.8 hPa Calm   3.5 km/h 97% 1.3 mm 0 W/m2
02:18 17.0 °C 16.6 °C 1015.8 hPa Calm   3.5 km/h 97% 1.0 mm 0 W/m2
02:23 17.1 °C 16.6 °C 1015.8 hPa Calm   2.6 km/h 97% 1.3 mm 0 W/m2
02:29 17.0 °C 16.6 °C 1015.8 hPa Calm   2.6 km/h 97% 0.5 mm 0 W/m2
02:34 17.0 °C 16.6 °C 1015.8 hPa Calm   1.1 km/h 97% 0.3 mm 0 W/m2
02:40 17.0 °C 16.6 °C 1015.8 hPa SW 1.1 km/h 2.6 km/h 97% 0.3 mm 0 W/m2
02:45 17.0 °C 16.6 °C 1015.8 hPa WSW 2.6 km/h 5.0 km/h 97% 0.3 mm 0 W/m2
02:51 16.9 °C 16.6 °C 1015.8 hPa West 1.1 km/h 5.0 km/h 98% 0.3 mm 0 W/m2
02:56 16.8 °C 16.5 °C 1015.8 hPa Calm   3.5 km/h 98% 0.3 mm 0 W/m2
03:01 17.0 °C 16.6 °C 1016.1 hPa NNW 2.6 km/h 5.0 km/h 97% 0.3 mm 0 W/m2
03:06 17.1 °C 16.6 °C 1015.8 hPa NNW 2.6 km/h 5.0 km/h 97% 0.3 mm 0 W/m2
03:08 17.0 °C 16.6 °C 1015.8 hPa Calm   5.0 km/h 97% 0.3 mm 0 W/m2
03:13 17.0 °C 16.6 °C 1015.8 hPa Calm   3.5 km/h 97% 0.3 mm 0 W/m2
03:18 17.0 °C 16.6 °C 1015.8 hPa Calm   2.6 km/h 97% 0.3 mm 0 W/m2
03:23 17.0 °C 16.6 °C 1015.8 hPa NW 2.6 km/h 3.5 km/h 97% 0.0 mm 0 W/m2
03:28 17.0 °C 16.6 °C 1015.8 hPa NW 2.6 km/h 3.5 km/h 97% 0.0 mm 0 W/m2
03:33 17.0 °C 16.6 °C 1015.8 hPa Calm   3.5 km/h 97% 0.0 mm 0 W/m2
03:38 17.1 °C 16.6 °C 1016.1 hPa Calm   3.5 km/h 97% 0.0 mm 0 W/m2
03:44 17.1 °C 16.6 °C 1016.1 hPa NW 2.6 km/h 5.0 km/h 97% 0.0 mm 0 W/m2
03:49 17.1 °C 16.6 °C 1016.1 hPa NW 1.1 km/h 6.1 km/h 97% 0.0 mm 0 W/m2
03:54 17.0 °C 16.6 °C 1015.8 hPa NW 1.1 km/h 6.1 km/h 97% 0.0 mm 0 W/m2
03:59 16.9 °C 16.6 °C 1016.1 hPa Calm   5.0 km/h 98% 0.0 mm 0 W/m2
04:04 17.0 °C 16.6 °C 1016.1 hPa NNW 3.5 km/h 5.0 km/h 97% 0.0 mm 0 W/m2
04:09 16.9 °C 16.6 °C 1015.8 hPa NNW 2.6 km/h 6.1 km/h 98% 0.0 mm 0 W/m2
04:14 16.9 °C 16.6 °C 1016.1 hPa NNW 2.6 km/h 6.1 km/h 98% 0.0 mm 0 W/m2
04:19 16.9 °C 16.6 °C 1016.1 hPa Calm   5.0 km/h 98% 0.0 mm 0 W/m2
04:24 16.9 °C 16.6 °C 1016.1 hPa NNW 2.6 km/h 5.0 km/h 98% 0.0 mm 0 W/m2
04:29 16.9 °C 16.6 °C 1016.1 hPa Calm   5.0 km/h 98% 0.0 mm 0 W/m2
04:34 16.8 °C 16.5 °C 1015.8 hPa Calm   3.5 km/h 98% 0.0 mm 0 W/m2
04:39 16.9 °C 16.6 °C 1015.8 hPa North 1.1 km/h 3.5 km/h 98% 0.0 mm 0 W/m2
04:44 16.8 °C 16.5 °C 1016.1 hPa NNW 2.6 km/h 5.0 km/h 98% 0.0 mm 0 W/m2
04:49 16.8 °C 16.5 °C 1016.1 hPa NNW 2.6 km/h 5.0 km/h 98% 0.0 mm 0 W/m2
04:54 16.9 °C 16.6 °C 1016.1 hPa Calm   3.5 km/h 98% 0.0 mm 0 W/m2
04:59 16.9 °C 16.6 °C 1015.8 hPa Calm   5.0 km/h 98% 0.0 mm 0 W/m2
05:04 17.0 °C 16.6 °C 1015.8 hPa NNE 1.1 km/h 5.0 km/h 97% 0.0 mm 0 W/m2
05:09 17.0 °C 16.6 °C 1015.8 hPa Calm   3.5 km/h 97% 0.0 mm 0 W/m2
05:14 17.0 °C 16.6 °C 1015.8 hPa Calm   2.6 km/h 97% 0.0 mm 0 W/m2
05:19 17.0 °C 16.6 °C 1015.8 hPa NNW 2.6 km/h 3.5 km/h 97% 0.0 mm 0 W/m2
05:24 17.0 °C 16.6 °C 1016.1 hPa NNW 1.1 km/h 3.5 km/h 97% 0.0 mm 0 W/m2
05:29 17.0 °C 16.6 °C 1015.8 hPa NNW 1.1 km/h 6.1 km/h 97% 0.0 mm 0 W/m2
05:34 16.9 °C 16.6 °C 1016.1 hPa Calm   6.1 km/h 98% 0.0 mm 0 W/m2
05:39 16.9 °C 16.6 °C 1016.1 hPa NNW 2.6 km/h 5.0 km/h 98% 0.0 mm 0 W/m2
05:44 16.8 °C 16.5 °C 1016.1 hPa Calm   3.5 km/h 98% 0.0 mm 0 W/m2
05:49 16.8 °C 16.5 °C 1016.1 hPa Calm   3.5 km/h 98% 0.0 mm 0 W/m2
05:54 16.8 °C 16.5 °C 1016.1 hPa Calm   3.5 km/h 98% 0.0 mm 0 W/m2
05:59 16.9 °C 16.6 °C 1016.1 hPa NW 1.1 km/h 3.5 km/h 98% 0.0 mm 0 W/m2
06:04 16.9 °C 16.6 °C 1016.1 hPa Calm   2.6 km/h 98% 0.0 mm 0 W/m2
06:09 16.9 °C 16.6 °C 1016.1 hPa Calm   2.6 km/h 98% 0.0 mm 0 W/m2
06:14 16.9 °C 16.6 °C 1016.1 hPa Calm     98% 0.0 mm 0 W/m2
06:19 17.0 °C 16.6 °C 1016.1 hPa North 1.1 km/h 2.6 km/h 97% 0.0 mm 0 W/m2
06:24 17.0 °C 16.6 °C 1016.1 hPa North 1.1 km/h 2.6 km/h 97% 0.0 mm 0 W/m2
06:29 17.0 °C 16.6 °C 1016.1 hPa North 1.1 km/h 3.5 km/h 97% 0.0 mm 0 W/m2
06:34 17.0 °C 16.6 °C 1016.1 hPa Calm   3.5 km/h 97% 0.0 mm 0 W/m2
06:39 16.9 °C 16.6 °C 1016.1 hPa North 2.6 km/h 3.5 km/h 98% 0.0 mm 0 W/m2
06:44 16.9 °C 16.6 °C 1016.5 hPa Calm   3.5 km/h 98% 0.0 mm 0 W/m2
06:49 16.9 °C 16.6 °C 1016.5 hPa Calm   3.5 km/h 98% 0.0 mm 0 W/m2
06:54 16.9 °C 16.6 °C 1016.5 hPa NW 1.1 km/h 3.5 km/h 98% 0.0 mm 1 W/m2
06:59 16.9 °C 16.6 °C 1016.5 hPa NW 2.6 km/h 3.5 km/h 98% 0.0 mm 1 W/m2
07:04 16.9 °C 16.6 °C 1016.8 hPa North 1.1 km/h 3.5 km/h 98% 0.0 mm 3 W/m2
07:10 17.0 °C 16.6 °C 1016.8 hPa NNW 2.6 km/h 5.0 km/h 97% 0.0 mm 3 W/m2
07:15 17.0 °C 16.6 °C 1017.2 hPa NNW 2.6 km/h 6.1 km/h 97% 0.0 mm 4 W/m2
07:20 17.0 °C 16.6 °C 1017.2 hPa NW 2.6 km/h 6.1 km/h 97% 0.0 mm 6 W/m2
07:25 16.9 °C 16.6 °C 1017.2 hPa NNW 1.1 km/h 5.0 km/h 98% 0.0 mm 8 W/m2
07:30 16.8 °C 16.5 °C 1017.2 hPa NNW 2.6 km/h 5.0 km/h 98% 0.0 mm 14 W/m2
07:36 16.8 °C 16.5 °C 1017.5 hPa Calm   5.0 km/h 98% 0.3 mm 18 W/m2
07:41 16.8 °C 16.5 °C 1017.5 hPa Calm   3.5 km/h 98% 0.3 mm 16 W/m2
07:46 16.8 °C 16.5 °C 1017.2 hPa Calm   2.6 km/h 98% 0.3 mm 25 W/m2
07:51 16.9 °C 16.6 °C 1017.5 hPa Calm     98% 0.5 mm 38 W/m2
07:56 16.9 °C 16.6 °C 1017.2 hPa Calm     98% 0.5 mm 37 W/m2
08:02 17.0 °C 16.6 °C 1017.5 hPa Calm     97% 1.0 mm 32 W/m2
08:07 17.0 °C 16.6 °C 1017.5 hPa Calm     97% 1.0 mm 31 W/m2
08:12 16.9 °C 16.6 °C 1017.5 hPa Calm     98% 1.3 mm 36 W/m2
08:18 17.0 °C 16.6 °C 1017.5 hPa Calm     97% 1.3 mm 42 W/m2
08:23 17.0 °C 16.6 °C 1017.8 hPa Calm     97% 1.3 mm 41 W/m2
08:28 17.0 °C 16.6 °C 1017.8 hPa Calm     97% 1.3 mm 47 W/m2
08:33 17.1 °C 16.6 °C 1017.8 hPa Calm     97% 1.3 mm 51 W/m2
08:38 17.2 °C 16.7 °C 1017.8 hPa Calm     97% 1.0 mm 45 W/m2
08:43 17.2 °C 16.7 °C 1017.5 hPa Calm     97% 1.0 mm 55 W/m2
08:48 17.3 °C 16.8 °C 1017.8 hPa Calm     97% 1.0 mm 70 W/m2
08:53 17.4 °C 16.9 °C 1017.5 hPa Calm     97% 1.0 mm 80 W/m2
08:58 17.4 °C 16.9 °C 1017.8 hPa Calm   1.1 km/h 97% 1.0 mm 84 W/m2
09:03 17.4 °C 16.9 °C 1017.8 hPa Calm   1.1 km/h 97% 0.5 mm 76 W/m2
09:09 17.6 °C 17.1 °C 1017.8 hPa Calm   1.1 km/h 97% 0.5 mm 71 W/m2
09:14 17.6 °C 17.1 °C 1017.8 hPa SW 1.1 km/h 2.6 km/h 97% 0.5 mm 71 W/m2
09:19 17.6 °C 17.1 °C 1017.8 hPa SSW 1.1 km/h 3.5 km/h 97% 0.5 mm 54 W/m2
09:24 17.6 °C 17.1 °C 1018.2 hPa South 2.6 km/h 3.5 km/h 97% 0.5 mm 52 W/m2
09:30 17.6 °C 17.1 °C 1017.8 hPa Calm   3.5 km/h 97% 0.5 mm 51 W/m2
09:36 17.6 °C 17.1 °C 1018.2 hPa South 1.1 km/h 5.0 km/h 97% 0.5 mm 85 W/m2
09:41 17.6 °C 17.1 °C 1017.8 hPa Calm   5.0 km/h 97% 1.0 mm 94 W/m2
09:46 17.8 °C 17.3 °C 1018.2 hPa Calm   5.0 km/h 97% 0.5 mm 101 W/m2
09:51 17.7 °C 17.2 °C 1017.8 hPa SSE 1.1 km/h 6.1 km/h 97% 1.0 mm 102 W/m2
09:56 17.7 °C 17.2 °C 1018.2 hPa SE 1.1 km/h 6.1 km/h 97% 1.0 mm 97 W/m2
10:01 17.8 °C 17.3 °C 1017.8 hPa Calm   5.0 km/h 97% 1.0 mm 83 W/m2
10:06 17.8 °C 17.3 °C 1017.8 hPa ESE 2.6 km/h 6.1 km/h 97% 1.0 mm 90 W/m2
10:11 17.7 °C 17.2 °C 1018.2 hPa ESE 7.2 km/h 8.7 km/h 97% 1.3 mm 108 W/m2
10:16 17.6 °C 17.1 °C 1018.2 hPa ESE 5.0 km/h 8.7 km/h 97% 1.0 mm 117 W/m2
10:21 17.6 °C 17.1 °C 1018.2 hPa East 2.6 km/h 8.7 km/h 97% 1.3 mm 106 W/m2
10:26 17.8 °C 17.3 °C 1018.2 hPa East 2.6 km/h 7.2 km/h 97% 1.3 mm 102 W/m2
10:31 17.9 °C 17.4 °C 1018.2 hPa East 3.5 km/h 6.1 km/h 97% 1.3 mm 127 W/m2
10:36 17.9 °C 17.4 °C 1018.2 hPa ESE 3.5 km/h 6.1 km/h 97% 1.3 mm 151 W/m2
10:41 18.0 °C 17.6 °C 1018.2 hPa ESE 5.0 km/h 7.2 km/h 97% 1.3 mm 144 W/m2
10:47 18.0 °C 17.6 °C 1018.2 hPa SE 2.6 km/h 7.2 km/h 97% 1.3 mm 130 W/m2
10:52 17.9 °C 17.3 °C 1018.2 hPa SSE 2.6 km/h 8.7 km/h 96% 1.0 mm 112 W/m2
10:57 17.8 °C 17.2 °C 1018.2 hPa SE 5.0 km/h 9.7 km/h 96% 1.3 mm 112 W/m2
11:02 17.6 °C 16.9 °C 1018.2 hPa SE 6.1 km/h 9.7 km/h 96% 1.3 mm 142 W/m2
11:07 17.6 °C 16.9 °C 1018.2 hPa ESE 7.2 km/h 12.2 km/h 96% 1.3 mm 142 W/m2
11:12 17.6 °C 16.9 °C 1018.2 hPa ESE 3.5 km/h 12.2 km/h 96% 1.0 mm 155 W/m2
11:17 17.7 °C 17.1 °C 1018.2 hPa ESE 3.5 km/h 12.2 km/h 96% 1.0 mm 175 W/m2
11:22 17.9 °C 17.3 °C 1018.2 hPa ESE 5.0 km/h 11.1 km/h 96% 0.5 mm 179 W/m2
11:27 17.9 °C 17.3 °C 1018.2 hPa ESE 5.0 km/h 12.2 km/h 96% 1.0 mm 171 W/m2
11:32 17.9 °C 17.1 °C 1018.2 hPa ESE 5.0 km/h 12.2 km/h 95% 1.0 mm 163 W/m2
11:37 17.9 °C 17.1 °C 1018.2 hPa ESE 5.0 km/h 11.1 km/h 95% 0.5 mm 108 W/m2
11:42 17.8 °C 17.0 °C 1018.2 hPa SE 5.0 km/h 11.1 km/h 95% 0.5 mm 117 W/m2
11:47 17.7 °C 16.9 °C 1017.8 hPa SE 6.1 km/h 9.7 km/h 95% 1.0 mm 140 W/m2
11:52 17.6 °C 16.8 °C 1017.8 hPa ESE 7.2 km/h 11.1 km/h 95% 1.0 mm 165 W/m2
11:57 17.7 °C 16.9 °C 1017.8 hPa East 6.1 km/h 13.4 km/h 95% 0.5 mm 162 W/m2
12:02 17.9 °C 17.1 °C 1017.8 hPa ESE 5.0 km/h 13.4 km/h 95% 0.5 mm 165 W/m2
12:07 18.0 °C 17.4 °C 1017.8 hPa SE 5.0 km/h 9.7 km/h 96% 0.5 mm 202 W/m2
12:12 17.9 °C 16.9 °C 1017.8 hPa ESE 2.6 km/h 14.8 km/h 94% 0.5 mm 199 W/m2
12:17 17.8 °C 16.7 °C 1017.8 hPa ESE 9.7 km/h 15.8 km/h 93% 1.0 mm 209 W/m2
12:22 17.8 °C 16.7 °C 1017.5 hPa ESE 8.7 km/h 15.8 km/h 93% 1.0 mm 199 W/m2
12:27 17.9 °C 16.8 °C 1017.5 hPa ESE 8.7 km/h 13.4 km/h 93% 0.5 mm 198 W/m2
12:32 18.1 °C 17.3 °C 1017.5 hPa SE 5.0 km/h 13.4 km/h 95% 0.5 mm 226 W/m2
12:37 18.3 °C 17.5 °C 1017.5 hPa ESE 3.5 km/h 12.2 km/h 95% 0.5 mm 246 W/m2
12:42 18.3 °C 17.5 °C 1017.5 hPa ESE 9.7 km/h 15.8 km/h 95% 1.0 mm 249 W/m2
12:47 18.2 °C 17.2 °C 1017.5 hPa ESE 5.0 km/h 17.2 km/h 94% 0.5 mm 216 W/m2
12:52 18.2 °C 17.2 °C 1017.5 hPa East 5.0 km/h 17.2 km/h 94% 0.5 mm 246 W/m2
12:57 18.3 °C 17.2 °C 1017.5 hPa ESE 3.5 km/h 15.8 km/h 93% 0.5 mm 199 W/m2
13:02 18.2 °C 16.9 °C 1017.5 hPa SE 7.2 km/h 13.4 km/h 92% 0.5 mm 194 W/m2
13:07 18.1 °C 16.8 °C 1017.5 hPa ESE 5.0 km/h 13.4 km/h 92% 0.5 mm 167 W/m2
13:12 18.1 °C 16.9 °C 1017.5 hPa ESE 8.7 km/h 13.4 km/h 93% 0.5 mm 120 W/m2
13:17 18.0 °C 16.9 °C 1017.5 hPa ESE 1.1 km/h 12.2 km/h 93% 0.3 mm 110 W/m2
13:23 18.1 °C 17.1 °C 1017.5 hPa SE 1.1 km/h 7.2 km/h 94% 0.3 mm 132 W/m2
13:28 18.2 °C 17.2 °C 1017.5 hPa ESE 6.1 km/h 11.1 km/h 94% 0.5 mm 128 W/m2
13:33 18.1 °C 17.1 °C 1017.5 hPa East 2.6 km/h 11.1 km/h 94% 0.5 mm 162 W/m2
13:38 18.1 °C 17.1 °C 1017.5 hPa ESE 5.0 km/h 13.4 km/h 94% 1.0 mm 151 W/m2
13:43 18.0 °C 17.1 °C 1017.5 hPa ESE 9.7 km/h 13.4 km/h 94% 1.0 mm 135 W/m2
13:48 17.9 °C 16.8 °C 1017.5 hPa East 8.7 km/h 14.8 km/h 93% 1.0 mm 104 W/m2
13:53 17.8 °C 16.7 °C 1017.5 hPa East 3.5 km/h 14.8 km/h 93% 1.0 mm 111 W/m2
13:58 17.8 °C 16.7 °C 1017.5 hPa ESE 1.1 km/h 14.8 km/h 93% 1.3 mm 129 W/m2
14:03 17.8 °C 16.7 °C 1017.2 hPa East 3.5 km/h 12.2 km/h 93% 1.5 mm 135 W/m2
14:08 17.9 °C 16.8 °C 1017.2 hPa ESE 3.5 km/h 12.2 km/h 93% 1.5 mm 114 W/m2
14:13 18.0 °C 17.2 °C 1017.5 hPa ESE 5.0 km/h 8.7 km/h 95% 1.5 mm 111 W/m2
14:19 17.8 °C 16.7 °C 1017.5 hPa ESE 8.7 km/h 14.8 km/h 93% 1.8 mm 107 W/m2
14:24 17.8 °C 16.7 °C 1017.5 hPa ESE 12.2 km/h 17.2 km/h 93% 2.0 mm 103 W/m2
14:30 17.8 °C 16.7 °C 1017.2 hPa East 7.2 km/h 17.2 km/h 93% 1.8 mm 101 W/m2
14:36 17.7 °C 16.6 °C 1017.2 hPa East 7.2 km/h 13.4 km/h 93% 1.8 mm 123 W/m2
14:42 17.8 °C 16.7 °C 1017.2 hPa ESE 11.1 km/h 13.4 km/h 93% 1.5 mm 110 W/m2
14:48 17.7 °C 16.6 °C 1017.2 hPa ESE 6.1 km/h 14.8 km/h 93% 1.5 mm 104 W/m2
14:53 17.8 °C 16.7 °C 1016.8 hPa ESE 5.0 km/h 14.8 km/h 93% 1.8 mm 104 W/m2
14:58 17.8 °C 16.7 °C 1017.2 hPa ESE 7.2 km/h 12.2 km/h 93% 1.5 mm 93 W/m2
15:03 17.7 °C 16.6 °C 1016.8 hPa ESE 3.5 km/h 12.2 km/h 93% 1.5 mm 82 W/m2
15:08 17.7 °C 16.6 °C 1016.8 hPa East 1.1 km/h 11.1 km/h 93% 1.5 mm 98 W/m2
15:13 17.7 °C 16.6 °C 1016.8 hPa ESE 5.0 km/h 14.8 km/h 93% 1.5 mm 105 W/m2
15:18 17.7 °C 16.6 °C 1016.8 hPa ESE 12.2 km/h 14.8 km/h 93% 1.5 mm 108 W/m2
15:23 17.7 °C 16.6 °C 1016.8 hPa East 11.1 km/h 14.8 km/h 93% 1.3 mm 90 W/m2
15:28 17.7 °C 16.6 °C 1016.8 hPa ESE 6.1 km/h 14.8 km/h 93% 1.5 mm 82 W/m2
15:33 17.6 °C 16.6 °C 1016.8 hPa ESE 11.1 km/h 14.8 km/h 94% 1.5 mm 77 W/m2
15:38 17.6 °C 16.6 °C 1016.8 hPa East 2.6 km/h 13.4 km/h 94% 1.5 mm 82 W/m2
15:43 17.6 °C 16.6 °C 1016.8 hPa East 3.5 km/h 12.2 km/h 94% 1.8 mm 75 W/m2
15:48 17.6 °C 16.6 °C 1016.8 hPa ESE 3.5 km/h 11.1 km/h 94% 1.8 mm 77 W/m2
15:53 17.6 °C 16.8 °C 1016.5 hPa ESE 2.6 km/h 7.2 km/h 95% 1.8 mm 88 W/m2
15:59 17.6 °C 16.8 °C 1016.8 hPa East 2.6 km/h 8.7 km/h 95% 2.0 mm 87 W/m2
16:04 17.6 °C 16.8 °C 1016.5 hPa East 5.0 km/h 9.7 km/h 95% 1.8 mm 93 W/m2
16:09 17.7 °C 16.9 °C 1016.5 hPa ESE 3.5 km/h 9.7 km/h 95% 1.8 mm 94 W/m2
16:14 17.8 °C 17.0 °C 1016.5 hPa ESE 2.6 km/h 9.7 km/h 95% 2.0 mm 85 W/m2
16:19 17.7 °C 16.9 °C 1016.5 hPa ESE 3.5 km/h 9.7 km/h 95% 1.8 mm 82 W/m2
16:24 17.7 °C 16.9 °C 1016.5 hPa ESE 3.5 km/h 9.7 km/h 95% 1.8 mm 86 W/m2
16:29 17.7 °C 16.7 °C 1016.5 hPa ESE 3.5 km/h 8.7 km/h 94% 1.5 mm 90 W/m2
16:34 17.7 °C 16.7 °C 1016.5 hPa ESE 2.6 km/h 8.7 km/h 94% 1.5 mm 98 W/m2
16:40 17.8 °C 16.8 °C 1016.5 hPa East 1.1 km/h 7.2 km/h 94% 1.3 mm 99 W/m2
16:45 17.9 °C 16.9 °C 1016.5 hPa ESE 5.0 km/h 8.7 km/h 94% 1.3 mm 88 W/m2
16:48 17.8 °C 16.8 °C 1016.5 hPa ESE 1.1 km/h 8.7 km/h 94% 1.3 mm 79 W/m2
16:53 17.9 °C 16.9 °C 1016.5 hPa ESE 3.5 km/h 9.7 km/h 94% 1.3 mm 70 W/m2
16:58 17.9 °C 16.9 °C 1016.5 hPa Calm   9.7 km/h 94% 1.0 mm 77 W/m2
17:03 17.9 °C 16.9 °C 1016.5 hPa SE 1.1 km/h 5.0 km/h 94% 1.0 mm 73 W/m2
17:08 17.9 °C 16.9 °C 1016.5 hPa SE 3.5 km/h 7.2 km/h 94% 1.3 mm 60 W/m2
17:13 17.8 °C 16.8 °C 1016.5 hPa ESE 3.5 km/h 7.2 km/h 94% 1.3 mm 62 W/m2
17:18 17.7 °C 16.7 °C 1016.5 hPa East 6.1 km/h 8.7 km/h 94% 1.0 mm 64 W/m2
17:23 17.6 °C 16.6 °C 1016.5 hPa East 2.6 km/h 9.7 km/h 94% 1.3 mm 71 W/m2
17:29 17.8 °C 16.7 °C 1016.5 hPa ESE 6.1 km/h 9.7 km/h 93% 1.0 mm 78 W/m2
17:34 17.7 °C 16.6 °C 1016.5 hPa SE 1.1 km/h 9.7 km/h 93% 1.3 mm 57 W/m2
17:39 17.7 °C 16.6 °C 1016.5 hPa ESE 5.0 km/h 9.7 km/h 93% 1.3 mm 40 W/m2
17:44 17.7 °C 16.6 °C 1016.5 hPa East 3.5 km/h 8.7 km/h 93% 1.3 mm 39 W/m2
17:49 17.7 °C 16.6 °C 1016.8 hPa East 5.0 km/h 11.1 km/h 93% 1.0 mm 40 W/m2
17:55 17.6 °C 16.4 °C 1016.8 hPa ENE 3.5 km/h 11.1 km/h 93% 1.3 mm 51 W/m2
18:00 17.7 °C 16.6 °C 1016.8 hPa East 7.2 km/h 11.1 km/h 93% 1.3 mm 61 W/m2
18:06 17.6 °C 16.4 °C 1016.8 hPa East 1.1 km/h 11.1 km/h 93% 1.3 mm 49 W/m2
18:11 17.6 °C 16.4 °C 1016.8 hPa East 3.5 km/h 7.2 km/h 93% 1.5 mm 40 W/m2
18:16 17.5 °C 16.2 °C 1016.5 hPa ESE 2.6 km/h 7.2 km/h 92% 1.5 mm 38 W/m2
18:21 17.5 °C 16.4 °C 1016.8 hPa East 3.5 km/h 7.2 km/h 93% 1.8 mm 45 W/m2
18:26 17.4 °C 16.3 °C 1016.8 hPa East 2.6 km/h 7.2 km/h 93% 1.5 mm 46 W/m2
18:31 17.3 °C 16.2 °C 1016.8 hPa East 2.6 km/h 7.2 km/h 93% 1.5 mm 48 W/m2
18:36 17.3 °C 16.2 °C 1016.8 hPa East 2.6 km/h 7.2 km/h 93% 1.5 mm 45 W/m2
18:41 17.3 °C 16.2 °C 1016.8 hPa ENE 2.6 km/h 7.2 km/h 93% 1.5 mm 43 W/m2
18:46 17.2 °C 16.1 °C 1016.8 hPa East 1.1 km/h 7.2 km/h 93% 1.8 mm 39 W/m2
18:51 17.2 °C 16.1 °C 1016.5 hPa East 2.6 km/h 8.7 km/h 93% 1.5 mm 33 W/m2
18:56 17.2 °C 16.1 °C 1016.8 hPa East 1.1 km/h 8.7 km/h 93% 1.5 mm 26 W/m2
19:01 17.1 °C 16.1 °C 1016.8 hPa East 2.6 km/h 7.2 km/h 94% 1.3 mm 26 W/m2
19:06 17.1 °C 16.1 °C 1016.8 hPa East 5.0 km/h 8.7 km/h 94% 1.5 mm 22 W/m2
19:11 17.1 °C 16.1 °C 1016.8 hPa East 2.6 km/h 8.7 km/h 94% 1.3 mm 18 W/m2
19:16 17.1 °C 16.1 °C 1016.8 hPa ENE 2.6 km/h 8.7 km/h 94% 1.0 mm 16 W/m2
19:21 17.1 °C 16.3 °C 1016.8 hPa Calm   6.1 km/h 95% 1.0 mm 13 W/m2
19:26 17.1 °C 16.3 °C 1016.8 hPa East 2.6 km/h 5.0 km/h 95% 1.3 mm 10 W/m2
19:31 17.1 °C 16.3 °C 1016.8 hPa ESE 2.6 km/h 5.0 km/h 95% 1.3 mm 8 W/m2
19:36 17.1 °C 16.3 °C 1016.8 hPa Calm   5.0 km/h 95% 1.0 mm 6 W/m2
19:41 17.1 °C 16.3 °C 1017.2 hPa East 1.1 km/h 5.0 km/h 95% 1.3 mm 5 W/m2
19:46 17.1 °C 16.3 °C 1017.2 hPa Calm   5.0 km/h 95% 1.3 mm 4 W/m2
19:51 17.0 °C 16.4 °C 1017.2 hPa Calm   5.0 km/h 96% 1.3 mm 3 W/m2
19:56 17.0 °C 16.4 °C 1017.2 hPa Calm   2.6 km/h 96% 1.5 mm 1 W/m2
20:01 17.0 °C 16.4 °C 1017.2 hPa Calm   2.6 km/h 96% 1.5 mm 0 W/m2
20:06 16.9 °C 16.4 °C 1017.2 hPa Calm   3.5 km/h 97% 1.5 mm 0 W/m2
20:11 16.9 °C 16.6 °C 1017.2 hPa Calm   3.5 km/h 98% 1.8 mm 0 W/m2
20:16 16.9 °C 16.6 °C 1017.2 hPa Calm   2.6 km/h 98% 2.0 mm 0 W/m2
20:21 16.8 °C 16.5 °C 1017.2 hPa ESE 1.1 km/h 3.5 km/h 98% 2.0 mm 0 W/m2
20:26 16.8 °C 16.5 °C 1017.2 hPa ESE 2.6 km/h 5.0 km/h 98% 2.0 mm 0 W/m2
20:31 16.8 °C 16.5 °C 1017.2 hPa East 2.6 km/h 8.7 km/h 98% 2.0 mm 0 W/m2
20:36 16.8 °C 16.5 °C 1017.5 hPa East 7.2 km/h 8.7 km/h 98% 2.0 mm 0 W/m2
20:41 16.8 °C 16.5 °C 1017.5 hPa East 5.0 km/h 11.1 km/h 98% 2.0 mm 0 W/m2
20:46 16.8 °C 16.5 °C 1017.5 hPa East 2.6 km/h 11.1 km/h 98% 1.8 mm 0 W/m2
20:51 16.8 °C 16.5 °C 1017.5 hPa ENE 3.5 km/h 9.7 km/h 98% 1.8 mm 0 W/m2
20:56 16.8 °C 16.5 °C 1017.5 hPa ENE 3.5 km/h 9.7 km/h 98% 1.8 mm 0 W/m2
21:01 16.8 °C 16.5 °C 1017.5 hPa ENE 3.5 km/h 7.2 km/h 98% 1.5 mm 0 W/m2
21:06 16.8 °C 16.5 °C 1017.5 hPa ENE 5.0 km/h 7.2 km/h 98% 1.5 mm 0 W/m2
21:11 16.7 °C 16.4 °C 1017.8 hPa ENE 3.5 km/h 8.7 km/h 98% 1.5 mm 0 W/m2
21:16 16.7 °C 16.4 °C 1017.8 hPa ENE 3.5 km/h 8.7 km/h 98% 1.3 mm 0 W/m2
21:21 16.7 °C 16.4 °C 1017.5 hPa NE 3.5 km/h 6.1 km/h 98% 1.5 mm 0 W/m2
21:26 16.7 °C 16.4 °C 1017.8 hPa ENE 6.1 km/h 8.7 km/h 98% 1.3 mm 0 W/m2
21:31 16.6 °C 16.3 °C 1017.8 hPa East 2.6 km/h 8.7 km/h 98% 1.5 mm 0 W/m2
21:36 16.6 °C 16.3 °C 1017.8 hPa East 2.6 km/h 8.7 km/h 98% 1.5 mm 0 W/m2
21:41 16.6 °C 16.3 °C 1018.2 hPa East 2.6 km/h 85.6 km/h 98% 1.3 mm 0 W/m2
21:46 16.6 °C 16.3 °C 1017.8 hPa ENE 1.1 km/h 85.6 km/h 98% 1.5 mm 0 W/m2
21:51 16.6 °C 16.3 °C 1018.2 hPa Calm   5.0 km/h 98% 1.5 mm 0 W/m2
21:56 16.6 °C 16.3 °C 1018.2 hPa Calm   3.5 km/h 98% 1.3 mm 0 W/m2
22:01 16.6 °C 16.3 °C 1018.2 hPa NE 3.5 km/h 7.2 km/h 98% 1.5 mm 0 W/m2
22:06 16.6 °C 16.3 °C 1018.2 hPa Calm   7.2 km/h 98% 1.5 mm 0 W/m2
22:11 16.6 °C 16.3 °C 1018.2 hPa ENE 1.1 km/h 3.5 km/h 98% 1.5 mm 0 W/m2
22:16 16.6 °C 16.3 °C 1018.2 hPa Calm   5.0 km/h 98% 1.5 mm 0 W/m2
22:21 16.6 °C 16.3 °C 1017.8 hPa Calm   5.0 km/h 98% 1.5 mm 0 W/m2
22:26 16.6 °C 16.3 °C 1018.2 hPa South 1.1 km/h 3.5 km/h 98% 1.5 mm 0 W/m2
22:31 16.6 °C 16.3 °C 1018.2 hPa Calm   3.5 km/h 98% 1.3 mm 0 W/m2
22:36 16.6 °C 16.3 °C 1018.2 hPa SSE 1.1 km/h 3.5 km/h 98% 1.3 mm 0 W/m2
22:41 16.6 °C 16.3 °C 1018.2 hPa South 1.1 km/h 5.0 km/h 98% 1.5 mm 0 W/m2
22:46 16.6 °C 16.3 °C 1017.8 hPa Calm   5.0 km/h 98% 1.3 mm 0 W/m2
22:51 16.5 °C 16.2 °C 1017.8 hPa Calm   2.6 km/h 98% 1.3 mm 0 W/m2
22:56 16.5 °C 16.2 °C 1017.8 hPa Calm   2.6 km/h 98% 1.3 mm 0 W/m2
23:01 16.5 °C 16.2 °C 1018.2 hPa Calm     98% 1.0 mm 0 W/m2
23:06 16.5 °C 16.2 °C 1017.8 hPa Calm     98% 0.5 mm 0 W/m2
23:11 16.5 °C 16.2 °C 1017.8 hPa Calm     98% 0.5 mm 0 W/m2
23:16 16.5 °C 16.2 °C 1017.8 hPa Calm   1.1 km/h 98% 0.5 mm 0 W/m2
23:21 16.5 °C 16.2 °C 1017.5 hPa ESE 1.1 km/h 5.0 km/h 98% 0.3 mm 0 W/m2
23:26 16.5 °C 16.2 °C 1017.8 hPa Calm   6.1 km/h 98% 0.3 mm 0 W/m2
23:31 16.5 °C 16.2 °C 1017.8 hPa Calm   6.1 km/h 98% 0.5 mm 0 W/m2
23:36 16.5 °C 16.2 °C 1017.8 hPa Calm   3.5 km/h 98% 0.5 mm 0 W/m2
23:41 16.5 °C 16.2 °C 1017.8 hPa East 2.6 km/h 3.5 km/h 98% 0.3 mm 0 W/m2
23:46 16.5 °C 16.2 °C 1017.8 hPa East 1.1 km/h 5.0 km/h 98% 0.3 mm 0 W/m2
23:51 16.5 °C 16.2 °C 1017.8 hPa East 2.6 km/h 6.1 km/h 98% 0.3 mm 0 W/m2
23:56 16.5 °C 16.2 °C 1017.8 hPa East 5.0 km/h 7.2 km/h 98% 0.3 mm 0 W/m2
Northern Hawkes Bay. New Zealand Historic Data
Compliments of Weather Underground - 2.25 mb